createdAt,value
2018-06-15T00:05:56.309Z,5.57
2018-06-15T00:08:25.939Z,5.83
2018-06-15T00:10:55.151Z,6.10
2018-06-15T00:13:25.317Z,5.73
2018-06-15T00:33:41.202Z,6.33
2018-06-15T00:36:10.407Z,6.57
2018-06-15T00:38:40.270Z,5.80
2018-06-15T00:41:09.598Z,6.33
2018-06-15T00:43:39.530Z,6.07
2018-06-15T00:46:09.446Z,6.53
2018-06-15T00:48:38.733Z,6.13
2018-06-15T00:51:08.641Z,6.33
2018-06-15T00:53:37.983Z,6.37
2018-06-15T00:56:07.615Z,6.13
2018-06-15T00:58:36.772Z,5.70
2018-06-15T01:01:06.067Z,5.97
2018-06-15T01:03:35.292Z,5.57
2018-06-15T01:06:04.597Z,5.40
2018-06-15T01:08:34.505Z,6.20
2018-06-15T01:28:49.621Z,7.37
2018-06-15T01:31:18.935Z,7.37
2018-06-15T01:33:48.178Z,6.80
2018-06-15T01:36:17.604Z,7.10
2018-06-15T01:38:46.903Z,7.67
2018-06-15T01:41:18.674Z,7.17
2018-06-15T01:43:47.987Z,7.73
2018-06-15T01:46:17.909Z,7.90
2018-06-15T01:48:47.438Z,8.13
2018-06-15T01:51:16.657Z,7.90
2018-06-15T01:53:46.552Z,8.47
2018-06-15T02:14:01.765Z,6.50
2018-06-15T02:16:32.378Z,6.30
2018-06-15T02:19:01.704Z,6.40
2018-06-15T02:21:31.051Z,6.40
2018-06-15T02:24:00.258Z,6.60
2018-06-15T02:26:30.193Z,6.03
2018-06-15T02:46:45.412Z,7.13
2018-06-15T02:49:17.330Z,6.67
2018-06-15T02:51:46.620Z,7.50
2018-06-15T02:54:15.929Z,7.40
2018-06-15T02:56:45.230Z,7.40
2018-06-15T02:59:15.240Z,7.20
2018-06-15T03:01:44.482Z,7.10
2018-06-15T03:04:13.715Z,6.57
2018-06-15T03:06:43.071Z,6.93
2018-06-15T03:09:12.676Z,7.03
2018-06-15T03:11:42.075Z,6.73
2018-06-15T03:14:11.017Z,6.03
2018-06-15T03:16:40.138Z,6.87
2018-06-15T03:19:10.182Z,6.47
2018-06-15T03:21:39.526Z,6.60
2018-06-15T03:24:08.916Z,6.87
2018-06-15T03:26:38.157Z,6.10
2018-06-15T03:46:53.509Z,7.07
2018-06-15T03:49:22.780Z,6.70
2018-06-15T03:51:51.952Z,7.00
2018-06-15T03:54:21.391Z,7.00
2018-06-15T03:56:51.306Z,6.77
2018-06-15T03:59:20.614Z,6.43
2018-06-15T04:01:50.547Z,7.07
2018-06-15T04:04:19.572Z,7.50
2018-06-15T04:06:48.697Z,6.87
2018-06-15T04:09:17.926Z,7.37
2018-06-15T04:11:47.141Z,7.37
2018-06-15T04:14:16.400Z,8.13
2018-06-15T04:16:46.867Z,7.80
2018-06-15T04:19:16.796Z,7.77
2018-06-15T04:21:46.148Z,7.47
2018-06-15T04:24:17.128Z,8.37
2018-06-15T04:26:46.439Z,7.80
2018-06-15T04:29:15.609Z,7.70
2018-06-15T04:31:44.959Z,8.03
2018-06-15T04:34:14.174Z,7.63
2018-06-15T04:36:43.428Z,7.80
2018-06-15T04:39:13.368Z,8.50
2018-06-15T04:41:42.750Z,7.90
2018-06-15T04:44:11.898Z,7.67
2018-06-15T04:46:41.169Z,7.43
2018-06-15T04:49:10.477Z,7.67
2018-06-15T04:51:39.669Z,8.60
2018-06-15T05:11:56.270Z,7.77
2018-06-15T05:14:25.500Z,7.20
2018-06-15T05:16:54.738Z,6.83
2018-06-15T05:19:23.944Z,7.60
2018-06-15T05:21:53.178Z,7.83
2018-06-15T05:24:23.062Z,8.30
2018-06-15T05:26:52.349Z,7.33
2018-06-15T05:29:22.302Z,8.03
2018-06-15T05:31:51.575Z,7.90
2018-06-15T05:34:21.600Z,7.77
2018-06-15T05:36:50.818Z,8.20
2018-06-15T05:39:22.229Z,8.30
2018-06-15T05:41:51.397Z,8.53
2018-06-15T05:44:21.258Z,7.93
2018-06-15T05:46:50.647Z,7.57
2018-06-15T06:07:05.284Z,8.17
2018-06-15T06:09:34.651Z,7.87
2018-06-15T06:12:04.007Z,7.93
2018-06-15T06:14:33.221Z,7.93
2018-06-15T06:17:03.259Z,7.53
2018-06-15T06:19:33.050Z,7.50
2018-06-15T06:22:02.412Z,8.00
2018-06-15T06:24:32.924Z,7.40
2018-06-15T06:27:02.185Z,7.90
2018-06-15T06:29:32.158Z,7.67
2018-06-15T06:32:02.570Z,8.40
2018-06-15T06:34:32.823Z,7.80
2018-06-15T06:37:02.811Z,8.30
2018-06-15T06:39:32.233Z,8.00
2018-06-15T06:42:01.505Z,8.17
2018-06-15T06:44:31.341Z,8.30
2018-06-15T06:47:00.708Z,8.20
2018-06-15T06:49:30.516Z,8.30
2018-06-15T06:52:01.257Z,8.87
2018-06-15T06:54:30.564Z,8.13
2018-06-15T06:57:00.366Z,7.90
2018-06-15T06:59:30.310Z,8.80
2018-06-15T07:01:59.569Z,7.83
2018-06-15T07:04:28.832Z,8.37
2018-06-15T07:06:58.163Z,7.80
2018-06-15T07:09:27.364Z,8.13
2018-06-15T07:11:56.694Z,8.67
2018-06-15T07:14:26.141Z,8.90
2018-06-15T07:16:55.459Z,10.50
2018-06-15T07:19:24.993Z,10.93
2018-06-15T07:21:54.255Z,11.37
2018-06-15T07:24:23.449Z,11.70
2018-06-15T07:26:53.206Z,12.13
2018-06-15T07:47:07.610Z,9.37
2018-06-15T07:49:36.822Z,9.53
2018-06-15T07:52:06.056Z,9.53
2018-06-15T07:54:35.391Z,9.63
2018-06-15T07:57:04.912Z,9.03
2018-06-15T08:17:20.446Z,10.67
2018-06-15T08:19:49.738Z,9.73
2018-06-15T08:40:04.947Z,10.60
2018-06-15T08:42:34.206Z,12.20
2018-06-15T08:45:03.815Z,11.60
2018-06-15T08:47:33.149Z,11.40
2018-06-15T08:50:02.402Z,13.23
2018-06-15T08:52:32.495Z,12.80
2018-06-15T08:55:01.803Z,10.37
2018-06-15T08:57:31.157Z,11.40
2018-06-15T09:00:01.774Z,10.97
2018-06-15T09:02:31.436Z,11.50
2018-06-15T09:05:00.486Z,10.23
2018-06-15T09:07:29.730Z,11.30
2018-06-15T09:09:59.984Z,11.30
2018-06-15T09:12:30.225Z,10.17
2018-06-15T09:15:00.350Z,11.03
2018-06-15T09:17:30.328Z,11.07
2018-06-15T09:37:45.181Z,8.07
2018-06-15T09:40:15.172Z,8.20
2018-06-15T09:42:44.388Z,8.33
2018-06-15T10:02:59.230Z,6.67
2018-06-15T10:05:29.379Z,5.10
2018-06-15T10:07:58.565Z,4.90
2018-06-15T10:10:27.870Z,4.63
2018-06-15T10:12:57.110Z,4.50
2018-06-15T10:15:26.291Z,3.70
2018-06-15T10:17:55.602Z,3.90
2018-06-15T10:20:24.873Z,4.30
2018-06-15T10:22:55.315Z,5.57
2018-06-15T10:43:10.129Z,5.03
2018-06-15T10:45:39.458Z,5.30
2018-06-15T10:48:08.721Z,4.93
2018-06-15T10:50:37.845Z,4.30
2018-06-15T10:53:07.020Z,4.27
2018-06-15T10:55:36.891Z,4.33
2018-06-15T10:58:06.310Z,3.90
2018-06-15T11:00:37.067Z,4.10
2018-06-15T11:20:51.597Z,4.63
2018-06-15T11:23:21.090Z,4.07
2018-06-15T11:25:50.952Z,4.10
2018-06-15T11:28:20.141Z,3.23
2018-06-15T11:48:35.782Z,3.20
2018-06-15T11:51:05.072Z,3.50
2018-06-15T12:11:20.100Z,3.30
2018-06-15T12:13:49.292Z,3.70
2018-06-15T12:16:19.174Z,3.70
2018-06-15T12:18:48.493Z,3.50
2018-06-15T12:39:05.863Z,3.07
2018-06-15T12:59:14.038Z,2.87
2018-06-15T13:01:45.275Z,2.70
2018-06-15T13:04:15.199Z,2.47
2018-06-15T13:24:34.289Z,2.70
2018-06-15T13:27:03.970Z,2.60
2018-06-15T13:47:19.134Z,2.87
2018-06-15T13:49:48.702Z,2.87
2018-06-15T14:10:03.246Z,2.30
2018-06-15T14:12:32.489Z,2.37
2018-06-15T14:32:46.876Z,2.37
2018-06-15T14:35:16.118Z,2.87
2018-06-15T14:37:46.010Z,2.53
2018-06-15T14:40:15.442Z,2.20
2018-06-15T14:42:44.759Z,2.50
2018-06-15T14:45:14.091Z,2.37
2018-06-15T15:05:28.670Z,2.40
2018-06-15T15:07:57.942Z,3.00
2018-06-15T15:10:27.129Z,2.70
2018-06-15T15:12:56.632Z,2.50
2018-06-15T15:15:26.555Z,2.60
2018-06-15T15:17:55.885Z,2.40
2018-06-15T15:20:25.098Z,2.70
2018-06-15T15:22:54.400Z,2.57
2018-06-15T15:25:23.704Z,2.77
2018-06-15T15:45:41.441Z,2.30
2018-06-15T15:48:10.802Z,2.50
2018-06-15T16:08:26.098Z,2.60
2018-06-15T16:10:55.668Z,2.53
2018-06-15T16:13:25.110Z,2.63
2018-06-15T16:15:54.947Z,2.97
2018-06-15T16:18:24.088Z,3.10
2018-06-15T16:20:53.106Z,3.03
2018-06-15T16:23:22.261Z,3.00
2018-06-15T16:25:51.989Z,3.00
2018-06-15T16:28:21.221Z,2.90
2018-06-15T16:30:50.229Z,3.17
2018-06-15T16:51:05.100Z,3.10
2018-06-15T16:53:35.825Z,3.10
2018-06-15T16:56:05.374Z,2.97
2018-06-15T16:58:35.346Z,3.07
2018-06-15T17:01:04.735Z,3.33
2018-06-15T17:03:34.610Z,3.90
2018-06-15T17:06:05.542Z,3.40
2018-06-15T17:08:35.004Z,3.13
2018-06-15T17:28:49.303Z,3.40
2018-06-15T17:31:20.367Z,3.30
2018-06-15T17:33:49.742Z,3.40
2018-06-15T17:36:19.015Z,3.77
2018-06-15T17:38:48.266Z,3.33
2018-06-15T17:58:58.670Z,3.30
2018-06-15T18:19:14.792Z,3.90
2018-06-15T18:21:44.242Z,3.60
2018-06-15T18:41:58.555Z,3.33
2018-06-15T19:02:14.981Z,4.10
2018-06-15T19:04:44.218Z,3.80
2018-06-15T19:07:14.557Z,3.90
2018-06-15T19:27:29.138Z,4.73
2018-06-15T19:29:58.351Z,5.10
2018-06-15T19:50:14.171Z,4.73
2018-06-15T20:10:36.792Z,8.50
2018-06-15T20:13:06.062Z,7.47
2018-06-15T20:15:35.312Z,7.60
2018-06-15T20:18:04.862Z,6.80
2018-06-15T20:20:34.339Z,6.83
2018-06-15T20:23:03.804Z,6.03
2018-06-15T20:25:32.976Z,5.87
2018-06-15T20:28:02.980Z,5.80
2018-06-15T20:48:12.690Z,5.60
2018-06-15T20:50:42.014Z,5.27
2018-06-15T20:53:11.436Z,5.20
2018-06-15T20:55:40.688Z,5.17
2018-06-15T20:58:09.904Z,5.40
2018-06-15T21:00:39.078Z,5.30
2018-06-15T21:03:08.029Z,5.10
2018-06-15T21:05:37.161Z,5.40
2018-06-15T21:08:07.197Z,5.50
2018-06-15T21:28:16.442Z,5.40
2018-06-15T21:30:45.712Z,5.83
2018-06-15T21:33:14.999Z,6.20
2018-06-15T21:35:44.293Z,6.17
2018-06-15T21:38:13.472Z,6.00
2018-06-15T21:58:28.570Z,6.23
2018-06-15T22:00:57.817Z,6.07
2018-06-15T22:03:27.713Z,6.43
2018-06-15T22:05:57.701Z,6.03
2018-06-15T22:08:27.278Z,6.33
2018-06-15T22:10:56.562Z,6.20
2018-06-15T22:13:25.857Z,5.80
2018-06-15T22:15:55.130Z,6.90
2018-06-15T22:18:25.044Z,6.13
2018-06-15T22:20:54.913Z,6.80
2018-06-15T22:23:24.313Z,7.03
2018-06-15T22:25:53.591Z,7.10
2018-06-15T22:28:22.880Z,7.00
2018-06-15T22:30:52.188Z,6.83
2018-06-15T22:33:21.457Z,6.97
2018-06-15T22:35:51.427Z,6.77
2018-06-15T22:38:21.165Z,6.47
2018-06-15T22:40:50.557Z,6.47
2018-06-15T22:43:20.018Z,6.70
2018-06-15T22:45:49.354Z,7.23
2018-06-15T22:48:18.642Z,6.33
2018-06-15T22:50:48.693Z,7.13
2018-06-15T22:53:18.474Z,7.13
2018-06-15T22:55:47.798Z,6.93
2018-06-15T22:58:17.737Z,6.60
2018-06-15T23:00:46.889Z,7.03
2018-06-15T23:03:16.194Z,6.97
2018-06-15T23:05:45.519Z,6.80
2018-06-15T23:08:15.449Z,6.60
2018-06-15T23:10:44.729Z,6.83
2018-06-15T23:13:13.989Z,7.83
2018-06-15T23:15:43.912Z,7.60
2018-06-15T23:18:13.191Z,8.07
2018-06-15T23:20:43.355Z,8.60
2018-06-15T23:23:12.635Z,8.27
2018-06-15T23:25:42.489Z,8.57
2018-06-15T23:28:12.010Z,8.60
2018-06-15T23:30:41.121Z,8.77
2018-06-15T23:33:09.985Z,8.63
2018-06-15T23:35:39.262Z,8.87
2018-06-15T23:38:08.488Z,8.70
2018-06-15T23:40:37.722Z,8.70
2018-06-15T23:43:07.026Z,8.93
2018-06-15T23:45:36.278Z,9.47
2018-06-15T23:48:06.135Z,9.37
2018-06-15T23:50:36.145Z,9.00
2018-06-15T23:53:05.717Z,9.27
2018-06-15T23:55:35.133Z,9.23
2018-06-15T23:58:04.564Z,9.17
